IKAROS1 EFJY-EFJY

Flight info

Callsign IKAROS1
Flight time 0h 15m
Altitude 3000
Route TC
Aircraft HAWK/L-SDGRT/S

Departure

Time 2026-04-22 07:59
Airport Jyväskylä Airport (EFJY)

Arrival

Time 2026-04-22 08:15
Airport Jyväskylä Airport (EFJY)
Time Latitude Longitude Altitude Speed Heading
2026-04-22 07:45 62.40367 25.65578 466 ft 0 kts 86°
2026-04-22 07:54 62.40378 25.65614 465 ft 5 kts 14°
2026-04-22 07:54 62.40422 25.65606 466 ft 6 kts 355°
2026-04-22 07:55 62.40480 25.65622 467 ft 13 kts 33°
2026-04-22 07:55 62.40563 25.65742 475 ft 13 kts 35°
2026-04-22 07:55 62.40572 25.65853 477 ft 12 kts 134°
2026-04-22 07:55 62.40474 25.66073 478 ft 26 kts 134°
2026-04-22 07:56 62.40353 25.66346 475 ft 25 kts 133°
2026-04-22 07:56 62.40236 25.66607 475 ft 24 kts 134°
2026-04-22 07:56 62.40132 25.66838 476 ft 19 kts 134°
2026-04-22 07:56 62.40040 25.67044 474 ft 20 kts 134°
2026-04-22 07:57 62.39933 25.67287 471 ft 23 kts 134°
2026-04-22 07:57 62.39813 25.67555 469 ft 26 kts 133°
2026-04-22 07:57 62.39690 25.67830 464 ft 26 kts 134°
2026-04-22 07:57 62.39568 25.68110 456 ft 21 kts 124°
2026-04-22 07:58 62.39501 25.68379 458 ft 21 kts 117°
2026-04-22 07:58 62.39438 25.68641 465 ft 18 kts 117°
2026-04-22 07:58 62.39409 25.68845 465 ft 10 kts 57°
2026-04-22 07:58 62.39460 25.68892 465 ft 10 kts 351°
2026-04-22 07:59 62.39506 25.68815 466 ft 6 kts 313°
2026-04-22 07:59 62.39556 25.68701 464 ft 34 kts 313°
2026-04-22 07:59 62.39948 25.67827 475 ft 127 kts 313°
2026-04-22 07:59 62.40706 25.66139 1122 ft 189 kts 314°
2026-04-22 08:00 62.41296 25.63281 2547 ft 236 kts 269°
2026-04-22 08:00 62.40306 25.60158 3092 ft 339 kts 200°
2026-04-22 08:00 62.37885 25.59631 3177 ft 354 kts 173°
2026-04-22 08:00 62.35571 25.61140 3114 ft 341 kts 152°
2026-04-22 08:01 62.33520 25.63552 3031 ft 331 kts 149°
2026-04-22 08:01 62.31541 25.65978 3005 ft 324 kts 148°
2026-04-22 08:01 62.29628 25.68451 2952 ft 321 kts 146°
2026-04-22 08:01 62.27798 25.71099 2996 ft 315 kts 144°
2026-04-22 08:02 62.26101 25.73960 2947 ft 312 kts 135°
2026-04-22 08:02 62.24580 25.77255 2937 ft 306 kts 128°
2026-04-22 08:02 62.23369 25.80858 3054 ft 295 kts 114°
2026-04-22 08:02 62.22844 25.84959 2869 ft 281 kts 84°
2026-04-22 08:03 62.23247 25.88811 3036 ft 252 kts 59°
2026-04-22 08:03 62.24216 25.91735 2962 ft 233 kts 35°
2026-04-22 08:03 62.25616 25.93097 2964 ft 214 kts
2026-04-22 08:03 62.27044 25.92733 3016 ft 202 kts 338°
2026-04-22 08:04 62.28182 25.91097 3120 ft 192 kts 326°
2026-04-22 08:04 62.29318 25.89456 2741 ft 202 kts 332°
2026-04-22 08:04 62.30170 25.88499 2571 ft 206 kts 333°
2026-04-22 08:04 62.31905 25.86675 2432 ft 205 kts 325°
2026-04-22 08:05 62.33071 25.84781 2157 ft 211 kts 319°
2026-04-22 08:05 62.34048 25.82610 2185 ft 183 kts 312°
2026-04-22 08:05 62.34762 25.80523 1892 ft 167 kts 306°
2026-04-22 08:05 62.35377 25.78579 1522 ft 143 kts 307°
2026-04-22 08:06 62.35859 25.76951 1324 ft 125 kts 303°
2026-04-22 08:06 62.36348 25.75560 1170 ft 109 kts 311°
2026-04-22 08:06 62.36859 25.74459 990 ft 97 kts 316°
2026-04-22 08:06 62.37376 25.73598 913 ft 98 kts 323°
2026-04-22 08:07 62.37957 25.72520 822 ft 115 kts 308°
2026-04-22 08:07 62.38458 25.71085 588 ft 124 kts 312°
2026-04-22 08:07 62.39031 25.69874 530 ft 111 kts 315°
2026-04-22 08:07 62.39516 25.68781 467 ft 87 kts 315°
2026-04-22 08:08 62.39973 25.67772 515 ft 119 kts 314°
2026-04-22 08:08 62.40713 25.66175 1306 ft 176 kts 318°
2026-04-22 08:08 62.41239 25.63619 2834 ft 219 kts 285°
2026-04-22 08:08 62.40641 25.60023 3146 ft 300 kts 236°
2026-04-22 08:09 62.38707 25.57347 3163 ft 361 kts 199°
2026-04-22 08:09 62.36117 25.56984 3125 ft 383 kts 174°
2026-04-22 08:09 62.33549 25.58762 2987 ft 396 kts 151°
2026-04-22 08:09 62.31231 25.62008 3101 ft 398 kts 142°
2026-04-22 08:10 62.29029 25.65593 3150 ft 393 kts 140°
2026-04-22 08:10 62.26957 25.69252 2949 ft 378 kts 137°
2026-04-22 08:10 62.25023 25.72876 3021 ft 364 kts 136°
2026-04-22 08:10 62.23172 25.76497 3000 ft 354 kts 134°
2026-04-22 08:11 62.21407 25.80103 2951 ft 347 kts 132°
2026-04-22 08:11 62.21058 25.84516 3007 ft 329 kts 39°
2026-04-22 08:11 62.23309 25.86641 3224 ft 383 kts 360°
2026-04-22 08:11 62.26047 25.85872 2999 ft 408 kts 352°
2026-04-22 08:12 62.28885 25.84980 2914 ft 414 kts 350°
2026-04-22 08:12 62.31675 25.83951 2877 ft 391 kts 349°
2026-04-22 08:12 62.33814 25.81278 1930 ft 316 kts 310°
2026-04-22 08:12 62.35049 25.78435 1637 ft 226 kts 314°
2026-04-22 08:13 62.36078 25.76194 1266 ft 195 kts 316°
2026-04-22 08:13 62.36961 25.74396 1257 ft 157 kts 316°
2026-04-22 08:13 62.37660 25.72908 994 ft 133 kts 314°
2026-04-22 08:13 62.38277 25.71565 752 ft 117 kts 314°
2026-04-22 08:14 62.38821 25.70363 570 ft 110 kts 313°
2026-04-22 08:14 62.39317 25.69236 469 ft 95 kts 315°
2026-04-22 08:14 62.39720 25.68337 467 ft 73 kts 315°
2026-04-22 08:14 62.39936 25.67860 471 ft 59 kts 313°
2026-04-22 08:15 62.40118 25.67444 472 ft 33 kts 312°
2026-04-22 08:15 62.40288 25.67045 477 ft 24 kts 314°
2026-04-22 08:15 62.40431 25.66712 478 ft 26 kts 313°
2026-04-22 08:15 62.40501 25.66556 478 ft 8 kts 308°
2026-04-22 08:16 62.40517 25.66467 481 ft 6 kts 271°
2026-04-22 08:16 62.40491 25.66364 483 ft 11 kts 226°
2026-04-22 08:16 62.40444 25.66267 478 ft 16 kts 223°
2026-04-22 08:16 62.40354 25.66079 470 ft 14 kts 223°
2026-04-22 08:17 62.40258 25.65881 461 ft 22 kts 224°
2026-04-22 08:17 62.40216 25.65793 461 ft 4 kts 225°
2026-04-22 08:17 62.40194 25.65713 462 ft 2 kts 293°
2026-04-22 08:17 62.40245 25.65565 466 ft 16 kts 328°
2026-04-22 08:18 62.40297 25.65575 466 ft 5 kts 66°
2026-04-22 08:18 62.40298 25.65580 466 ft 0 kts 70°